createdAt,value
2019-04-25T00:01:42.552Z,99816.29
2019-04-25T00:04:12.204Z,99785.32
2019-04-25T00:06:38.627Z,99759.20
2019-04-25T00:09:04.853Z,99752.45
2019-04-25T00:11:29.332Z,99723.11
2019-04-25T00:13:53.953Z,99760.03
2019-04-25T00:16:21.402Z,99768.02
2019-04-25T00:18:46.338Z,99775.19
2019-04-25T00:21:15.205Z,99754.91
2019-04-25T00:23:42.442Z,99765.56
2019-04-25T00:26:08.970Z,99773.46
2019-04-25T00:28:33.486Z,99797.31
2019-04-25T00:30:58.166Z,99815.31
2019-04-25T00:33:22.634Z,99821.61
2019-04-25T00:35:47.445Z,99837.84
2019-04-25T00:38:12.684Z,99851.50
2019-04-25T00:40:37.225Z,99839.81
2019-04-25T00:43:01.758Z,99849.19
2019-04-25T00:45:26.295Z,99866.69
2019-04-25T00:47:51.879Z,99880.56
2019-04-25T00:50:17.217Z,99887.78
2019-04-25T00:52:43.553Z,99889.52
2019-04-25T00:55:08.503Z,99907.14
2019-04-25T00:57:33.042Z,99913.19
2019-04-25T01:00:05.237Z,99914.97
2019-04-25T01:02:31.564Z,99931.06
2019-04-25T01:04:56.148Z,99928.28
2019-04-25T01:07:22.386Z,99933.02
2019-04-25T01:09:47.712Z,99924.05
2019-04-25T01:12:12.891Z,99932.09
2019-04-25T01:14:37.422Z,99928.02
2019-04-25T01:17:01.951Z,99923.84
2019-04-25T01:19:26.554Z,99915.52
2019-04-25T01:21:51.250Z,99924.86
2019-04-25T01:24:15.929Z,99919.38
2019-04-25T01:26:40.513Z,99926.05
2019-04-25T01:29:05.779Z,99928.56
2019-04-25T01:31:31.509Z,99934.77
2019-04-25T01:33:56.610Z,99946.33
2019-04-25T01:36:33.223Z,99949.88
2019-04-25T01:39:04.218Z,99939.80
2019-04-25T01:41:39.779Z,99939.66
2019-04-25T01:44:12.133Z,99941.44
2019-04-25T01:46:38.431Z,99939.98
2019-04-25T01:49:04.327Z,99936.75
2019-04-25T01:51:28.937Z,99948.95
2019-04-25T01:53:54.858Z,99953.50
2019-04-25T01:56:19.841Z,99950.96
2019-04-25T01:58:44.438Z,99949.58
2019-04-25T02:01:09.454Z,99948.30
2019-04-25T02:03:35.463Z,99935.23
2019-04-25T02:06:00.325Z,99937.98
2019-04-25T02:08:24.863Z,99928.64
2019-04-25T02:10:51.046Z,99928.20
2019-04-25T02:13:19.868Z,99934.39
2019-04-25T02:15:44.469Z,99943.97
2019-04-25T02:18:09.037Z,99934.30
2019-04-25T02:20:34.005Z,99932.45
2019-04-25T02:22:58.574Z,99931.31
2019-04-25T02:25:24.598Z,99935.66
2019-04-25T02:27:49.119Z,99935.09
2019-04-25T02:30:15.785Z,99942.48
2019-04-25T02:32:40.518Z,99932.73
2019-04-25T02:35:09.505Z,99933.75
2019-04-25T02:37:35.171Z,99928.15
2019-04-25T02:40:01.441Z,99877.86
2019-04-25T02:42:26.144Z,99868.20
2019-04-25T02:44:54.728Z,99917.95
2019-04-25T02:47:20.220Z,99931.95
2019-04-25T02:49:57.312Z,99935.45
2019-04-25T02:52:25.900Z,99936.10
2019-04-25T02:54:50.461Z,99935.91
2019-04-25T02:57:15.024Z,99940.09
2019-04-25T02:59:39.644Z,99941.86
2019-04-25T03:02:07.586Z,99941.76
2019-04-25T03:04:33.782Z,99935.70
2019-04-25T03:07:00.091Z,99935.63
2019-04-25T03:09:25.032Z,99934.23
2019-04-25T03:11:49.682Z,99937.09
2019-04-25T03:14:14.762Z,99943.23
2019-04-25T03:16:39.358Z,99938.94
2019-04-25T03:19:09.480Z,99938.27
2019-04-25T03:21:37.487Z,99951.16
2019-04-25T03:24:05.277Z,99945.48
2019-04-25T03:26:37.944Z,99954.53
2019-04-25T03:28:54.611Z,99960.95
2019-04-25T03:31:22.866Z,99963.30
2019-04-25T03:33:46.220Z,99963.01
2019-04-25T03:36:11.212Z,99963.74
2019-04-25T03:38:35.773Z,99962.41
2019-04-25T03:41:00.965Z,99972.45
2019-04-25T03:43:25.545Z,99981.15
2019-04-25T03:45:50.029Z,99996.23
2019-04-25T03:48:14.638Z,100008.29
2019-04-25T03:50:39.327Z,100012.51
2019-04-25T03:53:05.321Z,100022.72
2019-04-25T03:55:30.299Z,100026.69
2019-04-25T03:57:54.871Z,100028.16
2019-04-25T04:00:19.493Z,100031.11
2019-04-25T04:02:44.410Z,100032.36
2019-04-25T04:05:09.615Z,100042.27
2019-04-25T04:07:34.194Z,100046.45
2019-04-25T04:09:58.669Z,100015.30
2019-04-25T04:12:24.324Z,100055.42
2019-04-25T04:14:49.147Z,100053.09
2019-04-25T04:17:16.069Z,100062.22
2019-04-25T04:19:54.594Z,100066.27
2019-04-25T04:22:35.905Z,100064.53
2019-04-25T04:25:04.342Z,100072.14
2019-04-25T04:27:35.152Z,100074.42
2019-04-25T04:30:01.973Z,100069.05
2019-04-25T04:32:36.475Z,100071.07
2019-04-25T04:35:03.473Z,100072.27
2019-04-25T04:37:28.338Z,100075.67
2019-04-25T04:40:01.356Z,100083.17
2019-04-25T04:42:40.090Z,100054.79
2019-04-25T04:48:14.100Z,100084.86
2019-04-25T04:50:54.466Z,100088.25
2019-04-25T04:53:43.817Z,100082.80
2019-04-25T04:56:27.133Z,100080.73
2019-04-25T04:59:19.721Z,100078.09
2019-04-25T05:08:04.563Z,99919.64
2019-04-25T05:10:37.479Z,100083.02
2019-04-25T05:13:04.324Z,100090.63
2019-04-25T05:15:31.387Z,100105.30
2019-04-25T05:17:55.921Z,100103.45
2019-04-25T05:20:20.479Z,100105.62
2019-04-25T05:22:44.947Z,100108.96
2019-04-25T05:25:09.684Z,100122.34
2019-04-25T05:27:45.976Z,100131.16
2019-04-25T05:30:00.517Z,100125.30
2019-04-25T05:32:25.238Z,100137.52
2019-04-25T05:34:49.741Z,100142.14
2019-04-25T05:37:15.183Z,100147.78
2019-04-25T05:39:40.107Z,100150.70
2019-04-25T05:42:17.125Z,100149.97
2019-04-25T05:44:41.354Z,100154.27
2019-04-25T05:47:05.985Z,100159.25
2019-04-25T05:49:30.473Z,100163.74
2019-04-25T05:51:54.940Z,100155.67
2019-04-25T05:54:19.485Z,100157.98
2019-04-25T05:56:44.008Z,100167.75
2019-04-25T05:59:08.544Z,100170.67
2019-04-25T06:01:34.320Z,100178.88
2019-04-25T06:03:59.274Z,100179.23
2019-04-25T06:06:24.773Z,100181.03
2019-04-25T06:08:54.244Z,100184.13
2019-04-25T06:11:29.598Z,100182.69
2019-04-25T06:13:55.715Z,100177.78
2019-04-25T06:16:27.061Z,100172.97
2019-04-25T06:18:58.350Z,100179.01
2019-04-25T06:21:23.576Z,100176.76
2019-04-25T06:23:50.781Z,100183.09
2019-04-25T06:26:24.910Z,100180.27
2019-04-25T06:28:52.038Z,100193.55
2019-04-25T06:31:10.435Z,100197.09
2019-04-25T06:33:35.141Z,100196.31
2019-04-25T06:35:59.649Z,100197.63
2019-04-25T06:38:27.241Z,100197.25
2019-04-25T06:40:53.583Z,100203.63
2019-04-25T06:43:18.194Z,100201.45
2019-04-25T06:45:50.397Z,100205.36
2019-04-25T06:48:26.054Z,100213.39
2019-04-25T06:50:51.414Z,100216.48
2019-04-25T06:53:16.004Z,100208.31
2019-04-25T06:55:40.549Z,100209.89
2019-04-25T06:58:11.694Z,100215.38
2019-04-25T07:00:35.198Z,100217.17
2019-04-25T07:02:57.731Z,100215.11
2019-04-25T07:05:28.957Z,100213.98
2019-04-25T07:07:49.550Z,100214.68
2019-04-25T07:10:14.386Z,100218.30
2019-04-25T07:12:40.077Z,100218.73
2019-04-25T07:15:13.801Z,100221.45
2019-04-25T07:17:38.733Z,100215.11
2019-04-25T07:20:04.880Z,100217.09
2019-04-25T07:22:29.638Z,100219.20
2019-04-25T07:24:54.343Z,100222.02
2019-04-25T07:27:26.821Z,100228.03
2019-04-25T07:30:08.438Z,100223.20
2019-04-25T07:32:37.280Z,100220.73
2019-04-25T07:35:03.470Z,100216.81
2019-04-25T07:37:28.327Z,100227.34
2019-04-25T07:39:54.200Z,100231.69
2019-04-25T07:42:18.891Z,100240.25
2019-04-25T07:44:52.043Z,100231.42
2019-04-25T07:47:09.697Z,100235.17
2019-04-25T07:49:34.817Z,100228.21
2019-04-25T07:51:59.809Z,100231.79
2019-04-25T07:54:26.388Z,100238.34
2019-04-25T07:56:50.593Z,100239.58
2019-04-25T07:59:15.118Z,100240.20
2019-04-25T08:01:39.829Z,100237.95
2019-04-25T08:04:04.828Z,100239.80
2019-04-25T08:06:29.427Z,100242.83
2019-04-25T08:08:54.606Z,100236.58
2019-04-25T08:11:19.545Z,100243.73
2019-04-25T08:13:48.698Z,100241.23
2019-04-25T08:16:14.945Z,100236.59
2019-04-25T08:18:40.364Z,100230.67
2019-04-25T08:21:04.982Z,100230.28
2019-04-25T08:23:32.345Z,100230.84
2019-04-25T08:25:55.801Z,100236.96
2019-04-25T08:28:23.685Z,100236.43
2019-04-25T08:30:48.351Z,100235.05
2019-04-25T08:33:13.919Z,100234.24
2019-04-25T08:35:38.549Z,100232.55
2019-04-25T08:38:03.422Z,100239.30
2019-04-25T08:40:31.631Z,100240.42
2019-04-25T08:42:57.058Z,100246.27
2019-04-25T08:45:21.763Z,100247.03
2019-04-25T08:47:46.207Z,100250.10
2019-04-25T08:50:26.947Z,100252.38
2019-04-25T08:52:42.851Z,100259.39
2019-04-25T08:55:14.262Z,100236.58
2019-04-25T08:57:55.678Z,100258.26
2019-04-25T09:00:33.053Z,100255.88
2019-04-25T09:02:59.838Z,100250.02
2019-04-25T09:05:26.624Z,100254.06
2019-04-25T09:07:51.142Z,100247.72
2019-04-25T09:10:15.690Z,100248.95
2019-04-25T09:12:40.252Z,100238.13
2019-04-25T09:15:06.517Z,100233.97
2019-04-25T09:17:31.034Z,100237.45
2019-04-25T09:19:55.491Z,100236.91
2019-04-25T09:22:20.043Z,100241.32
2019-04-25T09:24:45.355Z,100254.15
2019-04-25T09:27:09.863Z,100245.45
2019-04-25T09:29:35.382Z,100240.47
2019-04-25T09:32:00.459Z,100246.30
2019-04-25T09:34:24.915Z,100251.00
2019-04-25T09:36:49.376Z,100248.07
2019-04-25T09:39:24.630Z,100253.09
2019-04-25T09:41:49.099Z,100232.33
2019-04-25T09:44:15.710Z,100260.73
2019-04-25T09:46:40.269Z,100252.30
2019-04-25T09:49:09.354Z,100255.85
2019-04-25T09:51:36.044Z,100259.23
2019-04-25T09:54:15.190Z,100249.63
2019-04-25T09:56:41.567Z,100245.92
2019-04-25T09:59:10.803Z,100241.88
2019-04-25T10:01:36.554Z,100248.29
2019-04-25T10:04:01.074Z,100220.83
2019-04-25T10:06:25.872Z,100222.20
2019-04-25T10:08:50.450Z,100222.34
2019-04-25T10:11:15.272Z,100230.37
2019-04-25T10:13:40.115Z,100233.64
2019-04-25T10:16:13.952Z,100233.77
2019-04-25T10:18:39.264Z,100236.65
2019-04-25T10:21:06.890Z,100230.92
2019-04-25T10:23:31.381Z,100223.89
2019-04-25T10:25:55.999Z,100224.36
2019-04-25T10:28:20.690Z,100221.94
2019-04-25T10:30:45.292Z,100235.05
2019-04-25T10:33:09.825Z,100232.22
2019-04-25T10:35:46.694Z,100226.44
2019-04-25T10:38:00.888Z,100219.43
2019-04-25T10:40:25.798Z,100214.71
2019-04-25T10:42:50.754Z,100216.11
2019-04-25T10:45:23.173Z,100213.96
2019-04-25T10:47:44.272Z,100209.55
2019-04-25T10:50:09.002Z,100201.69
2019-04-25T10:52:33.838Z,100199.03
2019-04-25T10:54:58.318Z,100197.45
2019-04-25T10:57:24.789Z,100190.52
2019-04-25T11:00:00.707Z,100196.50
2019-04-25T11:02:15.516Z,100190.44
2019-04-25T11:04:48.848Z,100183.27
2019-04-25T11:07:13.908Z,100185.90
2019-04-25T11:09:38.387Z,100145.58
2019-04-25T11:12:03.312Z,100183.88
2019-04-25T11:14:30.925Z,100183.80
2019-04-25T11:16:56.412Z,100191.55
2019-04-25T11:19:21.011Z,100199.03
2019-04-25T11:21:46.558Z,100192.48
2019-04-25T11:24:11.174Z,100178.83
2019-04-25T11:26:35.780Z,100183.81
2019-04-25T11:29:00.418Z,100187.14
2019-04-25T11:31:26.770Z,100185.98
2019-04-25T11:33:51.313Z,100190.73
2019-04-25T11:36:15.913Z,100193.31
2019-04-25T11:38:58.301Z,100182.06
2019-04-25T11:41:24.314Z,100185.04
2019-04-25T11:43:48.951Z,100187.69
2019-04-25T11:46:14.523Z,100180.73
2019-04-25T11:48:39.131Z,100185.98
2019-04-25T11:51:05.244Z,100189.98
2019-04-25T11:53:29.823Z,100184.92
2019-04-25T11:55:54.731Z,100184.92
2019-04-25T11:58:19.479Z,100158.00
2019-04-25T12:00:46.245Z,100172.84
2019-04-25T12:03:11.658Z,100182.67
2019-04-25T12:05:36.138Z,100174.80
2019-04-25T12:08:00.702Z,100187.31
2019-04-25T12:10:25.577Z,100187.31
2019-04-25T12:12:50.115Z,100178.57
2019-04-25T12:15:14.892Z,100175.61
2019-04-25T12:17:39.449Z,100175.63
2019-04-25T12:20:04.704Z,100175.05
2019-04-25T12:22:29.163Z,100177.96
2019-04-25T12:24:54.731Z,100174.11
2019-04-25T12:27:19.841Z,100172.19
2019-04-25T12:29:45.843Z,100172.19
2019-04-25T12:32:10.596Z,100173.83
2019-04-25T12:34:35.061Z,100172.02
2019-04-25T12:36:59.902Z,100167.82
2019-04-25T12:39:24.706Z,100165.75
2019-04-25T12:41:50.417Z,100162.69
2019-04-25T12:44:32.732Z,100159.44
2019-04-25T12:46:58.911Z,100127.00
2019-04-25T12:49:24.211Z,100153.63
2019-04-25T12:51:49.763Z,100166.70
2019-04-25T12:54:14.246Z,100159.41
2019-04-25T12:56:38.777Z,100150.29
2019-04-25T12:59:03.393Z,100164.89
2019-04-25T13:01:27.932Z,100159.42
2019-04-25T13:03:54.017Z,100155.44
2019-04-25T13:06:18.549Z,100156.08
2019-04-25T13:08:44.111Z,100150.37
2019-04-25T13:11:10.484Z,100150.09
2019-04-25T13:13:34.932Z,100156.08
2019-04-25T13:15:59.474Z,100156.05
2019-04-25T13:18:23.939Z,100148.12
2019-04-25T13:20:48.405Z,100149.07
2019-04-25T13:23:14.410Z,100142.91
2019-04-25T13:25:39.169Z,100150.34
2019-04-25T13:28:11.355Z,100138.00
2019-04-25T13:31:01.272Z,100144.90
2019-04-25T13:33:23.504Z,100139.16
2019-04-25T13:35:49.293Z,100133.66
2019-04-25T13:38:13.824Z,100132.65
2019-04-25T13:40:38.375Z,100127.84
2019-04-25T13:43:04.918Z,100127.91
2019-04-25T13:45:29.191Z,100131.63
2019-04-25T13:47:53.801Z,100127.48
2019-04-25T13:50:18.265Z,100125.08
2019-04-25T13:52:43.250Z,100124.00
2019-04-25T13:55:08.489Z,100128.50
2019-04-25T13:57:33.054Z,100122.99
2019-04-25T13:59:57.530Z,100122.77
2019-04-25T14:02:22.730Z,100122.70
2019-04-25T14:04:47.277Z,100126.91
2019-04-25T14:07:11.890Z,100113.95
2019-04-25T14:09:36.442Z,100114.82
2019-04-25T14:12:01.003Z,100113.68
2019-04-25T14:14:25.596Z,100118.77
2019-04-25T14:16:54.686Z,100112.45
2019-04-25T14:19:39.023Z,100103.89
2019-04-25T14:22:05.251Z,100108.19
2019-04-25T14:24:31.074Z,100078.38
2019-04-25T14:26:55.955Z,100119.05
2019-04-25T14:29:20.477Z,100072.71
2019-04-25T14:31:48.388Z,100090.77
2019-04-25T14:34:13.218Z,100097.63
2019-04-25T14:36:37.872Z,100104.05
2019-04-25T14:39:03.091Z,100085.38
2019-04-25T14:41:28.133Z,100086.00
2019-04-25T14:43:52.827Z,100098.54
2019-04-25T14:46:17.312Z,100092.88
2019-04-25T14:48:41.821Z,100085.21
2019-04-25T14:51:06.414Z,100080.80
2019-04-25T14:53:33.589Z,100079.55
2019-04-25T14:56:17.013Z,100086.09
2019-04-25T14:58:43.326Z,100085.50
2019-04-25T15:01:08.157Z,100087.61
2019-04-25T15:03:32.649Z,100087.52
2019-04-25T15:05:57.230Z,100085.09
2019-04-25T15:08:21.711Z,100091.28
2019-04-25T15:10:48.438Z,100086.24
2019-04-25T15:13:12.680Z,100081.60
2019-04-25T15:15:37.150Z,100080.22
2019-04-25T15:18:01.697Z,100085.02
2019-04-25T15:20:26.256Z,100087.16
2019-04-25T15:22:50.750Z,100083.41
2019-04-25T15:25:15.281Z,100082.42
2019-04-25T15:27:39.843Z,100082.97
2019-04-25T15:30:07.731Z,100086.81
2019-04-25T15:32:34.781Z,100080.67
2019-04-25T15:34:59.608Z,100082.02
2019-04-25T15:37:26.474Z,100082.80
2019-04-25T15:39:52.695Z,100090.20
2019-04-25T15:42:35.182Z,100075.80
2019-04-25T15:45:17.955Z,100078.08
2019-04-25T15:47:42.517Z,100069.11
2019-04-25T15:50:07.709Z,100073.39
2019-04-25T15:52:32.197Z,100069.08
2019-04-25T15:55:06.498Z,100065.75
2019-04-25T15:57:22.996Z,100062.89
2019-04-25T15:59:47.542Z,100056.57
2019-04-25T16:02:13.736Z,100057.06
2019-04-25T16:04:38.195Z,100056.67
2019-04-25T16:07:02.673Z,100058.22
2019-04-25T16:09:27.929Z,100061.31
2019-04-25T16:11:52.532Z,100060.59
2019-04-25T16:14:16.987Z,100056.73
2019-04-25T16:16:41.559Z,100054.47
2019-04-25T16:19:07.174Z,100053.52
2019-04-25T16:21:31.678Z,100044.21
2019-04-25T16:23:56.305Z,100050.61
2019-04-25T16:26:20.768Z,100043.92
2019-04-25T16:28:45.305Z,100046.73
2019-04-25T16:31:11.519Z,100048.16
2019-04-25T16:33:35.969Z,100040.72
2019-04-25T16:36:00.529Z,100036.51
2019-04-25T16:38:25.804Z,100034.32
2019-04-25T16:40:50.342Z,100039.66
2019-04-25T16:43:16.511Z,100041.34
2019-04-25T16:45:41.379Z,100042.98
2019-04-25T16:48:06.056Z,100043.94
2019-04-25T16:50:31.697Z,100019.41
2019-04-25T16:52:56.162Z,100050.98
2019-04-25T16:55:20.866Z,100040.22
2019-04-25T16:57:45.408Z,100045.66
2019-04-25T17:00:20.198Z,100042.43
2019-04-25T17:02:44.801Z,100049.08
2019-04-25T17:05:09.871Z,100042.90
2019-04-25T17:07:34.323Z,100039.81
2019-04-25T17:09:58.882Z,100035.56
2019-04-25T17:12:24.164Z,100028.08
2019-04-25T17:14:56.176Z,100031.42
2019-04-25T17:17:25.325Z,100029.04
2019-04-25T17:19:51.570Z,100030.34
2019-04-25T17:22:16.462Z,100019.44
2019-04-25T17:24:41.266Z,100018.75
2019-04-25T17:27:07.534Z,100021.91
2019-04-25T17:29:32.524Z,100015.06
2019-04-25T17:32:04.471Z,100022.89
2019-04-25T17:34:46.651Z,100012.68
2019-04-25T17:37:22.070Z,100009.52
2019-04-25T17:39:51.130Z,100008.75
2019-04-25T17:42:15.765Z,100007.84
2019-04-25T17:44:40.559Z,100003.16
2019-04-25T17:47:06.377Z,100009.20
2019-04-25T17:49:32.763Z,100008.75
2019-04-25T17:51:57.261Z,100000.01
2019-04-25T17:54:21.737Z,100000.47
2019-04-25T17:56:46.280Z,100000.10
2019-04-25T17:59:10.881Z,99994.48
2019-04-25T18:01:35.988Z,99995.08
2019-04-25T18:04:00.685Z,99992.20
2019-04-25T18:06:25.208Z,99985.84
2019-04-25T18:08:49.769Z,99980.09
2019-04-25T18:11:14.369Z,99980.27
2019-04-25T18:13:41.107Z,99979.80
2019-04-25T18:16:10.174Z,99978.91
2019-04-25T18:18:37.080Z,99984.28
2019-04-25T18:21:01.603Z,99980.66
2019-04-25T18:23:27.776Z,99988.38
2019-04-25T18:26:03.154Z,99988.63
2019-04-25T18:28:29.263Z,99989.19
2019-04-25T18:30:54.105Z,99987.98
2019-04-25T18:33:20.219Z,99981.67
2019-04-25T18:35:46.217Z,99988.04
2019-04-25T18:38:15.179Z,99988.36
2019-04-25T18:40:44.141Z,99987.85
2019-04-25T18:43:10.373Z,99983.13
2019-04-25T18:45:37.466Z,99975.30
2019-04-25T18:48:02.737Z,99981.19
2019-04-25T18:50:28.884Z,99981.19
2019-04-25T18:52:55.127Z,99976.52
2019-04-25T18:55:21.270Z,99968.63
2019-04-25T18:57:47.374Z,99968.63
2019-04-25T19:00:19.868Z,99972.25
2019-04-25T19:02:49.093Z,99971.47
2019-04-25T19:05:15.272Z,99990.38
2019-04-25T19:07:39.812Z,99990.38
2019-04-25T19:10:07.010Z,99986.34
2019-04-25T19:12:31.483Z,99983.27
2019-04-25T19:14:56.084Z,99979.63
2019-04-25T19:17:20.622Z,99977.35
2019-04-25T19:19:45.648Z,99979.97
2019-04-25T19:22:10.291Z,99978.89
2019-04-25T19:24:34.806Z,99980.03
2019-04-25T19:26:59.277Z,99973.89
2019-04-25T19:29:23.833Z,99972.84
2019-04-25T19:31:48.435Z,99977.84
2019-04-25T19:34:13.006Z,99977.84
2019-04-25T19:36:37.456Z,99974.02
2019-04-25T19:39:01.947Z,99975.83
2019-04-25T19:41:28.043Z,99971.26
2019-04-25T19:44:03.208Z,99973.20
2019-04-25T19:46:32.106Z,99968.60
2019-04-25T19:48:56.658Z,99959.36
2019-04-25T19:51:21.322Z,99971.36
2019-04-25T19:53:45.911Z,99964.06
2019-04-25T19:56:10.453Z,99958.77
2019-04-25T19:58:35.082Z,99957.10
2019-04-25T20:00:59.613Z,99955.13
2019-04-25T20:03:28.808Z,99957.31
2019-04-25T20:05:54.980Z,99950.52
2019-04-25T20:08:23.931Z,99948.77
2019-04-25T20:10:53.545Z,99943.83
2019-04-25T20:13:18.025Z,99947.78
2019-04-25T20:15:43.159Z,99918.86
2019-04-25T20:18:08.594Z,99948.09
2019-04-25T20:20:33.165Z,99941.69
2019-04-25T20:22:57.703Z,99946.98
2019-04-25T20:25:22.198Z,99942.59
2019-04-25T20:27:46.796Z,99945.32
2019-04-25T20:30:11.705Z,99930.84
2019-04-25T20:32:36.319Z,99935.80
2019-04-25T20:35:00.793Z,99930.63
2019-04-25T20:37:25.246Z,99934.59
2019-04-25T20:39:49.740Z,99933.41
2019-04-25T20:42:14.250Z,99931.41
2019-04-25T20:44:38.705Z,99931.85
2019-04-25T20:47:03.261Z,99935.31
2019-04-25T20:49:27.730Z,99932.55
2019-04-25T20:51:52.614Z,99933.81
2019-04-25T20:54:17.229Z,99937.45
2019-04-25T20:56:41.753Z,99933.98
2019-04-25T20:59:06.267Z,99938.59
2019-04-25T21:01:30.823Z,99932.63
2019-04-25T21:03:55.314Z,99933.41
2019-04-25T21:06:22.291Z,99933.41
2019-04-25T21:08:46.747Z,99932.70
2019-04-25T21:11:11.424Z,99932.02
2019-04-25T21:13:37.608Z,99934.92
2019-04-25T21:16:12.586Z,99935.30
2019-04-25T21:18:38.713Z,99932.70
2019-04-25T21:21:03.228Z,99940.19
2019-04-25T21:23:27.691Z,99934.78
2019-04-25T21:25:52.921Z,99936.07
2019-04-25T21:28:17.560Z,99938.59
2019-04-25T21:30:42.020Z,99938.36
2019-04-25T21:33:06.556Z,99936.37
2019-04-25T21:35:31.293Z,99936.91
2019-04-25T21:37:55.833Z,99934.12
2019-04-25T21:40:24.688Z,99933.18
2019-04-25T21:43:00.079Z,99932.41
2019-04-25T21:45:24.973Z,99926.84
2019-04-25T21:47:49.715Z,99934.75
2019-04-25T21:50:14.796Z,99930.83
2019-04-25T21:52:39.506Z,99931.66
2019-04-25T21:55:05.852Z,99932.16
2019-04-25T21:57:30.485Z,99924.37
2019-04-25T22:00:03.118Z,99928.19
2019-04-25T22:02:21.612Z,99933.45
2019-04-25T22:04:46.421Z,99923.09
2019-04-25T22:07:11.686Z,99923.73
2019-04-25T22:09:36.567Z,99919.25
2019-04-25T22:12:01.831Z,99918.18
2019-04-25T22:14:26.375Z,99920.14
2019-04-25T22:16:51.387Z,99917.91
2019-04-25T22:19:16.099Z,99919.96
2019-04-25T22:21:40.922Z,99913.86
2019-04-25T22:24:13.009Z,99914.81
2019-04-25T22:26:31.946Z,99918.13
2019-04-25T22:28:57.729Z,99916.59
2019-04-25T22:31:24.079Z,99917.08
2019-04-25T22:34:06.750Z,99918.83
2019-04-25T22:36:31.451Z,99916.36
2019-04-25T22:39:14.521Z,99916.31
2019-04-25T22:41:41.516Z,99919.83
2019-04-25T22:44:07.918Z,99917.79
2019-04-25T22:46:32.593Z,99921.54
2019-04-25T22:48:57.343Z,99918.69
2019-04-25T22:51:21.804Z,99922.14
2019-04-25T22:53:47.850Z,99926.68
2019-04-25T22:56:12.398Z,99923.34
2019-04-25T22:58:36.964Z,99918.39
2019-04-25T23:01:03.425Z,99921.61
2019-04-25T23:03:29.540Z,99918.37
2019-04-25T23:05:55.790Z,99921.97
2019-04-25T23:08:20.523Z,99912.55
2019-04-25T23:10:45.030Z,99911.94
2019-04-25T23:13:10.881Z,99868.17
2019-04-25T23:15:35.382Z,99906.41
2019-04-25T23:17:59.914Z,99870.99
2019-04-25T23:20:24.439Z,99896.04
2019-04-25T23:22:48.893Z,99890.09
2019-04-25T23:25:15.297Z,99885.57
2019-04-25T23:27:53.482Z,99884.01
2019-04-25T23:30:19.854Z,99881.85
2019-04-25T23:32:44.365Z,99879.39
2019-04-25T23:35:24.265Z,99875.47
2019-04-25T23:37:35.176Z,99873.24
2019-04-25T23:39:59.624Z,99873.25
2019-04-25T23:42:24.153Z,99872.17
2019-04-25T23:44:48.803Z,99869.76
2019-04-25T23:47:14.315Z,99864.87
2019-04-25T23:49:38.807Z,99862.56
2019-04-25T23:52:03.559Z,99853.52
2019-04-25T23:54:28.073Z,99857.02
2019-04-25T23:56:52.792Z,99846.27
2019-04-25T23:59:17.802Z,99845.70
